sensor_id;sensor_type;location;lat;lon;timestamp;P1;durP1;ratioP1;P2;durP2;ratioP2
14766;SDS011;7475;53.558;9.970;2022-08-16T00:01:28;10.32;;;9.32;;
14766;SDS011;7475;53.558;9.970;2022-08-16T00:03:54;10.32;;;9.30;;
14766;SDS011;7475;53.558;9.970;2022-08-16T00:06:19;10.60;;;9.55;;
14766;SDS011;7475;53.558;9.970;2022-08-16T00:08:45;10.73;;;9.65;;
14766;SDS011;7475;53.558;9.970;2022-08-16T00:11:10;10.30;;;9.30;;
14766;SDS011;7475;53.558;9.970;2022-08-16T00:13:36;10.00;;;9.13;;
14766;SDS011;7475;53.558;9.970;2022-08-16T00:16:01;9.63;;;8.82;;
14766;SDS011;7475;53.558;9.970;2022-08-16T00:18:27;10.15;;;8.93;;
14766;SDS011;7475;53.558;9.970;2022-08-16T00:20:52;9.90;;;9.00;;
14766;SDS011;7475;53.558;9.970;2022-08-16T00:23:17;10.03;;;9.13;;
14766;SDS011;7475;53.558;9.970;2022-08-16T00:25:43;10.00;;;9.10;;
14766;SDS011;7475;53.558;9.970;2022-08-16T00:28:08;10.77;;;9.77;;
14766;SDS011;7475;53.558;9.970;2022-08-16T00:30:33;10.95;;;9.85;;
14766;SDS011;7475;53.558;9.970;2022-08-16T00:32:59;10.60;;;9.68;;
14766;SDS011;7475;53.558;9.970;2022-08-16T00:35:29;11.80;;;10.55;;
14766;SDS011;7475;53.558;9.970;2022-08-16T00:37:55;11.95;;;10.75;;
14766;SDS011;7475;53.558;9.970;2022-08-16T00:40:22;12.48;;;11.18;;
14766;SDS011;7475;53.558;9.970;2022-08-16T00:42:47;13.70;;;11.15;;
14766;SDS011;7475;53.558;9.970;2022-08-16T00:47:56;12.07;;;10.93;;
14766;SDS011;7475;53.558;9.970;2022-08-16T00:50:23;12.80;;;11.70;;
14766;SDS011;7475;53.558;9.970;2022-08-16T00:52:49;13.30;;;11.93;;
14766;SDS011;7475;53.558;9.970;2022-08-16T00:55:14;12.90;;;11.70;;
14766;SDS011;7475;53.558;9.970;2022-08-16T00:57:39;13.90;;;12.65;;
14766;SDS011;7475;53.558;9.970;2022-08-16T01:00:05;13.35;;;12.25;;
14766;SDS011;7475;53.558;9.970;2022-08-16T01:02:32;13.90;;;12.70;;
14766;SDS011;7475;53.558;9.970;2022-08-16T01:04:58;13.10;;;11.90;;
14766;SDS011;7475;53.558;9.970;2022-08-16T01:07:23;12.95;;;11.65;;
14766;SDS011;7475;53.558;9.970;2022-08-16T01:09:48;13.85;;;12.45;;
14766;SDS011;7475;53.558;9.970;2022-08-16T01:12:13;13.17;;;11.97;;
14766;SDS011;7475;53.558;9.970;2022-08-16T01:14:45;13.77;;;11.60;;
14766;SDS011;7475;53.558;9.970;2022-08-16T01:17:12;12.93;;;11.73;;
14766;SDS011;7475;53.558;9.970;2022-08-16T01:19:49;13.40;;;12.00;;
14766;SDS011;7475;53.558;9.970;2022-08-16T01:22:20;13.65;;;12.45;;
14766;SDS011;7475;53.558;9.970;2022-08-16T01:24:50;15.45;;;12.32;;
14766;SDS011;7475;53.558;9.970;2022-08-16T01:27:30;13.43;;;12.13;;
14766;SDS011;7475;53.558;9.970;2022-08-16T01:30:07;12.93;;;11.68;;
14766;SDS011;7475;53.558;9.970;2022-08-16T01:32:34;13.35;;;12.15;;
14766;SDS011;7475;53.558;9.970;2022-08-16T01:35:07;13.27;;;12.18;;
14766;SDS011;7475;53.558;9.970;2022-08-16T01:37:37;13.75;;;12.45;;
14766;SDS011;7475;53.558;9.970;2022-08-16T01:40:04;15.27;;;13.95;;
14766;SDS011;7475;53.558;9.970;2022-08-16T01:42:29;14.07;;;12.77;;
14766;SDS011;7475;53.558;9.970;2022-08-16T01:44:54;13.50;;;12.20;;
14766;SDS011;7475;53.558;9.970;2022-08-16T01:47:19;14.00;;;12.63;;
14766;SDS011;7475;53.558;9.970;2022-08-16T01:49:45;13.60;;;12.40;;
14766;SDS011;7475;53.558;9.970;2022-08-16T01:52:11;14.53;;;13.13;;
14766;SDS011;7475;53.558;9.970;2022-08-16T01:54:37;14.00;;;12.80;;
14766;SDS011;7475;53.558;9.970;2022-08-16T01:57:03;14.63;;;13.38;;
14766;SDS011;7475;53.558;9.970;2022-08-16T01:59:28;14.85;;;13.55;;
14766;SDS011;7475;53.558;9.970;2022-08-16T02:01:54;13.93;;;12.73;;
14766;SDS011;7475;53.558;9.970;2022-08-16T02:04:20;15.52;;;14.10;;
14766;SDS011;7475;53.558;9.970;2022-08-16T02:06:45;16.52;;;15.02;;
14766;SDS011;7475;53.558;9.970;2022-08-16T02:09:11;17.00;;;15.60;;
14766;SDS011;7475;53.558;9.970;2022-08-16T02:11:39;15.18;;;13.88;;
14766;SDS011;7475;53.558;9.970;2022-08-16T02:14:05;14.70;;;13.27;;
14766;SDS011;7475;53.558;9.970;2022-08-16T02:16:30;15.30;;;13.90;;
14766;SDS011;7475;53.558;9.970;2022-08-16T02:18:55;15.30;;;14.00;;
14766;SDS011;7475;53.558;9.970;2022-08-16T02:21:21;16.15;;;14.77;;
14766;SDS011;7475;53.558;9.970;2022-08-16T02:23:46;15.43;;;14.02;;
14766;SDS011;7475;53.558;9.970;2022-08-16T02:26:11;17.10;;;15.48;;
14766;SDS011;7475;53.558;9.970;2022-08-16T02:28:36;16.63;;;15.13;;
14766;SDS011;7475;53.558;9.970;2022-08-16T02:31:03;17.05;;;15.55;;
14766;SDS011;7475;53.558;9.970;2022-08-16T02:33:29;16.60;;;15.20;;
14766;SDS011;7475;53.558;9.970;2022-08-16T02:35:54;16.80;;;15.35;;
14766;SDS011;7475;53.558;9.970;2022-08-16T02:38:19;17.33;;;15.57;;
14766;SDS011;7475;53.558;9.970;2022-08-16T02:40:45;16.70;;;15.30;;
14766;SDS011;7475;53.558;9.970;2022-08-16T02:43:10;17.35;;;15.82;;
14766;SDS011;7475;53.558;9.970;2022-08-16T02:45:36;17.48;;;15.68;;
14766;SDS011;7475;53.558;9.970;2022-08-16T02:48:02;17.50;;;15.80;;
14766;SDS011;7475;53.558;9.970;2022-08-16T02:50:27;18.35;;;16.65;;
14766;SDS011;7475;53.558;9.970;2022-08-16T02:52:52;17.65;;;16.05;;
14766;SDS011;7475;53.558;9.970;2022-08-16T02:55:19;17.35;;;15.85;;
14766;SDS011;7475;53.558;9.970;2022-08-16T02:57:44;17.15;;;15.63;;
14766;SDS011;7475;53.558;9.970;2022-08-16T03:00:10;17.52;;;15.80;;
14766;SDS011;7475;53.558;9.970;2022-08-16T03:02:37;17.60;;;16.20;;
14766;SDS011;7475;53.558;9.970;2022-08-16T03:05:04;17.50;;;15.90;;
14766;SDS011;7475;53.558;9.970;2022-08-16T03:07:29;19.40;;;17.30;;
14766;SDS011;7475;53.558;9.970;2022-08-16T03:09:55;17.87;;;16.30;;
14766;SDS011;7475;53.558;9.970;2022-08-16T03:12:21;18.95;;;17.10;;
14766;SDS011;7475;53.558;9.970;2022-08-16T03:14:47;18.65;;;16.92;;
14766;SDS011;7475;53.558;9.970;2022-08-16T03:17:12;18.25;;;16.42;;
14766;SDS011;7475;53.558;9.970;2022-08-16T03:19:37;18.67;;;16.87;;
14766;SDS011;7475;53.558;9.970;2022-08-16T03:22:02;20.40;;;18.50;;
14766;SDS011;7475;53.558;9.970;2022-08-16T03:24:28;19.75;;;17.80;;
14766;SDS011;7475;53.558;9.970;2022-08-16T03:26:54;20.88;;;18.67;;
14766;SDS011;7475;53.558;9.970;2022-08-16T03:29:21;21.30;;;19.33;;
14766;SDS011;7475;53.558;9.970;2022-08-16T03:31:46;20.75;;;18.95;;
14766;SDS011;7475;53.558;9.970;2022-08-16T03:34:12;21.90;;;20.02;;
14766;SDS011;7475;53.558;9.970;2022-08-16T03:36:37;21.92;;;20.02;;
14766;SDS011;7475;53.558;9.970;2022-08-16T03:39:02;21.03;;;19.23;;
14766;SDS011;7475;53.558;9.970;2022-08-16T03:41:27;21.13;;;19.20;;
14766;SDS011;7475;53.558;9.970;2022-08-16T03:43:52;22.00;;;20.13;;
14766;SDS011;7475;53.558;9.970;2022-08-16T03:46:20;21.52;;;19.63;;
14766;SDS011;7475;53.558;9.970;2022-08-16T03:48:46;22.13;;;20.02;;
14766;SDS011;7475;53.558;9.970;2022-08-16T03:51:12;22.80;;;20.63;;
14766;SDS011;7475;53.558;9.970;2022-08-16T03:53:37;22.50;;;20.50;;
14766;SDS011;7475;53.558;9.970;2022-08-16T03:56:02;24.08;;;21.77;;
14766;SDS011;7475;53.558;9.970;2022-08-16T03:58:28;23.38;;;21.38;;
14766;SDS011;7475;53.558;9.970;2022-08-16T04:00:53;23.77;;;21.40;;
14766;SDS011;7475;53.558;9.970;2022-08-16T04:03:19;25.13;;;22.92;;
14766;SDS011;7475;53.558;9.970;2022-08-16T04:05:45;22.40;;;20.50;;
14766;SDS011;7475;53.558;9.970;2022-08-16T04:08:11;24.88;;;22.55;;
14766;SDS011;7475;53.558;9.970;2022-08-16T04:10:37;24.60;;;22.35;;
14766;SDS011;7475;53.558;9.970;2022-08-16T04:13:02;24.65;;;22.55;;
14766;SDS011;7475;53.558;9.970;2022-08-16T04:15:27;24.70;;;22.50;;
14766;SDS011;7475;53.558;9.970;2022-08-16T04:17:53;23.70;;;21.60;;
14766;SDS011;7475;53.558;9.970;2022-08-16T04:20:18;24.25;;;22.15;;
14766;SDS011;7475;53.558;9.970;2022-08-16T04:22:45;23.83;;;21.67;;
14766;SDS011;7475;53.558;9.970;2022-08-16T04:25:10;24.27;;;22.13;;
14766;SDS011;7475;53.558;9.970;2022-08-16T04:27:36;23.05;;;20.98;;
14766;SDS011;7475;53.558;9.970;2022-08-16T04:30:03;25.00;;;22.65;;
14766;SDS011;7475;53.558;9.970;2022-08-16T04:32:29;24.67;;;22.30;;
14766;SDS011;7475;53.558;9.970;2022-08-16T04:34:54;23.75;;;21.55;;
14766;SDS011;7475;53.558;9.970;2022-08-16T04:37:20;25.05;;;22.55;;
14766;SDS011;7475;53.558;9.970;2022-08-16T04:39:45;23.73;;;21.53;;
14766;SDS011;7475;53.558;9.970;2022-08-16T04:42:10;23.42;;;21.33;;
14766;SDS011;7475;53.558;9.970;2022-08-16T04:44:36;23.70;;;21.40;;
14766;SDS011;7475;53.558;9.970;2022-08-16T04:47:01;23.10;;;21.10;;
14766;SDS011;7475;53.558;9.970;2022-08-16T04:49:26;23.92;;;21.65;;
14766;SDS011;7475;53.558;9.970;2022-08-16T04:51:51;25.47;;;23.10;;
14766;SDS011;7475;53.558;9.970;2022-08-16T04:54:17;23.52;;;21.42;;
14766;SDS011;7475;53.558;9.970;2022-08-16T04:56:42;23.75;;;21.70;;
14766;SDS011;7475;53.558;9.970;2022-08-16T04:59:07;22.17;;;20.13;;
14766;SDS011;7475;53.558;9.970;2022-08-16T05:01:33;26.75;;;24.30;;
14766;SDS011;7475;53.558;9.970;2022-08-16T05:03:59;27.00;;;24.40;;
14766;SDS011;7475;53.558;9.970;2022-08-16T05:06:24;23.88;;;21.75;;
14766;SDS011;7475;53.558;9.970;2022-08-16T05:08:50;24.58;;;22.35;;
14766;SDS011;7475;53.558;9.970;2022-08-16T05:11:15;24.20;;;21.90;;
14766;SDS011;7475;53.558;9.970;2022-08-16T05:13:44;24.60;;;22.23;;
14766;SDS011;7475;53.558;9.970;2022-08-16T05:16:11;23.92;;;21.75;;
14766;SDS011;7475;53.558;9.970;2022-08-16T05:18:36;25.38;;;22.88;;
14766;SDS011;7475;53.558;9.970;2022-08-16T05:21:02;25.37;;;22.70;;
14766;SDS011;7475;53.558;9.970;2022-08-16T05:23:27;25.13;;;22.83;;
14766;SDS011;7475;53.558;9.970;2022-08-16T05:25:53;24.58;;;22.35;;
14766;SDS011;7475;53.558;9.970;2022-08-16T05:28:18;25.13;;;22.83;;
14766;SDS011;7475;53.558;9.970;2022-08-16T05:30:43;24.85;;;22.50;;
14766;SDS011;7475;53.558;9.970;2022-08-16T05:33:09;25.02;;;22.60;;
14766;SDS011;7475;53.558;9.970;2022-08-16T05:35:35;25.98;;;23.48;;
14766;SDS011;7475;53.558;9.970;2022-08-16T05:38:00;26.27;;;23.58;;
14766;SDS011;7475;53.558;9.970;2022-08-16T05:40:25;26.58;;;24.08;;
14766;SDS011;7475;53.558;9.970;2022-08-16T05:42:51;26.33;;;23.65;;
14766;SDS011;7475;53.558;9.970;2022-08-16T05:45:16;26.00;;;23.50;;
14766;SDS011;7475;53.558;9.970;2022-08-16T05:47:41;23.45;;;21.20;;
14766;SDS011;7475;53.558;9.970;2022-08-16T05:50:06;21.17;;;19.00;;
14766;SDS011;7475;53.558;9.970;2022-08-16T05:52:32;21.20;;;18.92;;
14766;SDS011;7475;53.558;9.970;2022-08-16T05:54:57;21.23;;;19.33;;
14766;SDS011;7475;53.558;9.970;2022-08-16T05:57:23;22.33;;;19.98;;
14766;SDS011;7475;53.558;9.970;2022-08-16T05:59:48;19.88;;;18.08;;
14766;SDS011;7475;53.558;9.970;2022-08-16T06:02:14;19.35;;;17.40;;
14766;SDS011;7475;53.558;9.970;2022-08-16T06:04:39;18.77;;;17.15;;
14766;SDS011;7475;53.558;9.970;2022-08-16T06:07:05;19.00;;;17.15;;
14766;SDS011;7475;53.558;9.970;2022-08-16T06:09:31;19.10;;;17.40;;
14766;SDS011;7475;53.558;9.970;2022-08-16T06:11:56;19.30;;;17.45;;
14766;SDS011;7475;53.558;9.970;2022-08-16T06:14:21;19.00;;;17.30;;
14766;SDS011;7475;53.558;9.970;2022-08-16T06:16:46;19.07;;;17.17;;
14766;SDS011;7475;53.558;9.970;2022-08-16T06:19:11;19.20;;;17.45;;
14766;SDS011;7475;53.558;9.970;2022-08-16T06:21:37;17.98;;;16.48;;
14766;SDS011;7475;53.558;9.970;2022-08-16T06:24:02;17.48;;;15.77;;
14766;SDS011;7475;53.558;9.970;2022-08-16T06:26:27;17.60;;;15.90;;
14766;SDS011;7475;53.558;9.970;2022-08-16T06:28:53;15.90;;;14.40;;
14766;SDS011;7475;53.558;9.970;2022-08-16T06:31:19;16.95;;;15.13;;
14766;SDS011;7475;53.558;9.970;2022-08-16T06:33:44;16.17;;;14.57;;
14766;SDS011;7475;53.558;9.970;2022-08-16T06:36:10;15.95;;;14.32;;
14766;SDS011;7475;53.558;9.970;2022-08-16T06:38:35;16.27;;;14.77;;
14766;SDS011;7475;53.558;9.970;2022-08-16T06:41:07;16.20;;;14.67;;
14766;SDS011;7475;53.558;9.970;2022-08-16T06:43:33;16.33;;;14.73;;
14766;SDS011;7475;53.558;9.970;2022-08-16T06:45:59;15.93;;;13.77;;
14766;SDS011;7475;53.558;9.970;2022-08-16T06:48:24;14.82;;;13.43;;
14766;SDS011;7475;53.558;9.970;2022-08-16T06:50:50;15.52;;;14.13;;
14766;SDS011;7475;53.558;9.970;2022-08-16T06:53:16;14.60;;;13.18;;
14766;SDS011;7475;53.558;9.970;2022-08-16T06:55:41;13.60;;;12.30;;
14766;SDS011;7475;53.558;9.970;2022-08-16T06:58:07;13.55;;;12.35;;
14766;SDS011;7475;53.558;9.970;2022-08-16T07:00:32;13.00;;;11.73;;
14766;SDS011;7475;53.558;9.970;2022-08-16T07:02:57;13.57;;;12.27;;
14766;SDS011;7475;53.558;9.970;2022-08-16T07:05:23;14.90;;;12.52;;
14766;SDS011;7475;53.558;9.970;2022-08-16T07:07:48;14.90;;;12.50;;
14766;SDS011;7475;53.558;9.970;2022-08-16T07:10:16;14.05;;;11.60;;
14766;SDS011;7475;53.558;9.970;2022-08-16T07:12:41;12.48;;;11.45;;
14766;SDS011;7475;53.558;9.970;2022-08-16T07:15:07;12.55;;;10.93;;
14766;SDS011;7475;53.558;9.970;2022-08-16T07:17:33;12.57;;;11.38;;
14766;SDS011;7475;53.558;9.970;2022-08-16T07:20:00;10.95;;;9.95;;
14766;SDS011;7475;53.558;9.970;2022-08-16T07:22:25;11.43;;;9.98;;
14766;SDS011;7475;53.558;9.970;2022-08-16T07:24:51;12.68;;;10.48;;
14766;SDS011;7475;53.558;9.970;2022-08-16T07:27:16;10.65;;;9.60;;
14766;SDS011;7475;53.558;9.970;2022-08-16T07:29:41;11.95;;;9.95;;
14766;SDS011;7475;53.558;9.970;2022-08-16T07:32:07;13.02;;;10.30;;
14766;SDS011;7475;53.558;9.970;2022-08-16T07:34:32;11.98;;;9.93;;
14766;SDS011;7475;53.558;9.970;2022-08-16T07:37:03;10.02;;;9.05;;
14766;SDS011;7475;53.558;9.970;2022-08-16T07:39:28;11.43;;;10.00;;
14766;SDS011;7475;53.558;9.970;2022-08-16T07:41:54;10.73;;;9.73;;
14766;SDS011;7475;53.558;9.970;2022-08-16T07:44:19;11.77;;;9.65;;
14766;SDS011;7475;53.558;9.970;2022-08-16T07:46:44;11.52;;;10.38;;
14766;SDS011;7475;53.558;9.970;2022-08-16T07:49:10;10.40;;;9.40;;
14766;SDS011;7475;53.558;9.970;2022-08-16T07:51:35;10.73;;;9.63;;
14766;SDS011;7475;53.558;9.970;2022-08-16T07:54:01;12.30;;;9.52;;
14766;SDS011;7475;53.558;9.970;2022-08-16T07:56:27;9.30;;;8.32;;
14766;SDS011;7475;53.558;9.970;2022-08-16T07:58:52;10.45;;;8.45;;
14766;SDS011;7475;53.558;9.970;2022-08-16T08:01:18;9.55;;;8.40;;
14766;SDS011;7475;53.558;9.970;2022-08-16T08:03:43;10.07;;;9.10;;
14766;SDS011;7475;53.558;9.970;2022-08-16T08:06:09;10.45;;;8.52;;
14766;SDS011;7475;53.558;9.970;2022-08-16T08:08:34;9.55;;;8.63;;
14766;SDS011;7475;53.558;9.970;2022-08-16T08:10:59;9.93;;;7.97;;
14766;SDS011;7475;53.558;9.970;2022-08-16T08:13:25;8.10;;;7.30;;
14766;SDS011;7475;53.558;9.970;2022-08-16T08:15:50;9.53;;;7.27;;
14766;SDS011;7475;53.558;9.970;2022-08-16T08:18:15;9.60;;;7.95;;
14766;SDS011;7475;53.558;9.970;2022-08-16T08:20:41;9.68;;;8.68;;
14766;SDS011;7475;53.558;9.970;2022-08-16T08:23:09;8.25;;;7.07;;
14766;SDS011;7475;53.558;9.970;2022-08-16T08:25:36;9.48;;;7.50;;
14766;SDS011;7475;53.558;9.970;2022-08-16T08:28:01;8.85;;;7.95;;
14766;SDS011;7475;53.558;9.970;2022-08-16T08:30:26;8.77;;;7.93;;
14766;SDS011;7475;53.558;9.970;2022-08-16T08:32:52;11.82;;;8.27;;
14766;SDS011;7475;53.558;9.970;2022-08-16T08:35:19;8.43;;;7.18;;
14766;SDS011;7475;53.558;9.970;2022-08-16T08:37:45;9.50;;;7.82;;
14766;SDS011;7475;53.558;9.970;2022-08-16T08:40:10;10.48;;;7.25;;
14766;SDS011;7475;53.558;9.970;2022-08-16T08:42:36;7.03;;;6.40;;
14766;SDS011;7475;53.558;9.970;2022-08-16T08:45:03;9.88;;;7.13;;
14766;SDS011;7475;53.558;9.970;2022-08-16T08:47:28;9.48;;;6.80;;
14766;SDS011;7475;53.558;9.970;2022-08-16T08:49:54;8.75;;;6.60;;
14766;SDS011;7475;53.558;9.970;2022-08-16T08:52:20;8.50;;;7.57;;
14766;SDS011;7475;53.558;9.970;2022-08-16T08:54:46;7.88;;;7.13;;
14766;SDS011;7475;53.558;9.970;2022-08-16T08:57:11;9.73;;;7.22;;
14766;SDS011;7475;53.558;9.970;2022-08-16T08:59:37;7.97;;;7.18;;
14766;SDS011;7475;53.558;9.970;2022-08-16T09:02:02;8.32;;;6.85;;
14766;SDS011;7475;53.558;9.970;2022-08-16T09:04:28;5.67;;;5.17;;
14766;SDS011;7475;53.558;9.970;2022-08-16T09:06:53;6.53;;;5.47;;
14766;SDS011;7475;53.558;9.970;2022-08-16T09:09:18;8.50;;;6.40;;
14766;SDS011;7475;53.558;9.970;2022-08-16T09:11:44;8.25;;;6.68;;
14766;SDS011;7475;53.558;9.970;2022-08-16T09:14:10;9.68;;;6.18;;
14766;SDS011;7475;53.558;9.970;2022-08-16T09:16:35;6.83;;;5.90;;
14766;SDS011;7475;53.558;9.970;2022-08-16T09:19:00;6.25;;;5.43;;
14766;SDS011;7475;53.558;9.970;2022-08-16T09:21:26;7.80;;;5.97;;
14766;SDS011;7475;53.558;9.970;2022-08-16T09:23:51;9.32;;;5.70;;
14766;SDS011;7475;53.558;9.970;2022-08-16T09:26:16;7.43;;;5.97;;
14766;SDS011;7475;53.558;9.970;2022-08-16T09:28:42;6.15;;;5.55;;
14766;SDS011;7475;53.558;9.970;2022-08-16T09:31:08;7.57;;;4.50;;
14766;SDS011;7475;53.558;9.970;2022-08-16T09:33:34;6.47;;;5.07;;
14766;SDS011;7475;53.558;9.970;2022-08-16T09:35:59;5.10;;;4.47;;
14766;SDS011;7475;53.558;9.970;2022-08-16T09:38:25;6.93;;;5.15;;
14766;SDS011;7475;53.558;9.970;2022-08-16T09:40:50;6.88;;;5.82;;
14766;SDS011;7475;53.558;9.970;2022-08-16T09:43:17;5.50;;;5.00;;
14766;SDS011;7475;53.558;9.970;2022-08-16T09:45:43;5.38;;;4.80;;
14766;SDS011;7475;53.558;9.970;2022-08-16T09:48:09;8.43;;;5.22;;
14766;SDS011;7475;53.558;9.970;2022-08-16T09:50:35;7.72;;;5.07;;
14766;SDS011;7475;53.558;9.970;2022-08-16T09:53:01;5.65;;;4.57;;
14766;SDS011;7475;53.558;9.970;2022-08-16T09:55:27;8.63;;;4.80;;
14766;SDS011;7475;53.558;9.970;2022-08-16T09:57:52;8.93;;;5.10;;
14766;SDS011;7475;53.558;9.970;2022-08-16T10:00:17;7.67;;;4.40;;
14766;SDS011;7475;53.558;9.970;2022-08-16T10:02:43;5.60;;;4.50;;
14766;SDS011;7475;53.558;9.970;2022-08-16T10:05:08;5.30;;;4.80;;
14766;SDS011;7475;53.558;9.970;2022-08-16T10:07:34;8.55;;;4.70;;
14766;SDS011;7475;53.558;9.970;2022-08-16T10:09:59;6.40;;;5.18;;
14766;SDS011;7475;53.558;9.970;2022-08-16T10:12:27;8.23;;;5.30;;
14766;SDS011;7475;53.558;9.970;2022-08-16T10:15:15;6.85;;;4.40;;
14766;SDS011;7475;53.558;9.970;2022-08-16T10:17:40;6.07;;;4.75;;
14766;SDS011;7475;53.558;9.970;2022-08-16T10:20:07;6.65;;;5.18;;
14766;SDS011;7475;53.558;9.970;2022-08-16T10:22:34;6.88;;;4.57;;
14766;SDS011;7475;53.558;9.970;2022-08-16T10:24:59;5.60;;;4.60;;
14766;SDS011;7475;53.558;9.970;2022-08-16T10:27:24;6.97;;;4.60;;
14766;SDS011;7475;53.558;9.970;2022-08-16T10:29:49;5.27;;;4.73;;
14766;SDS011;7475;53.558;9.970;2022-08-16T10:32:15;4.83;;;4.40;;
14766;SDS011;7475;53.558;9.970;2022-08-16T10:34:40;7.53;;;4.75;;
14766;SDS011;7475;53.558;9.970;2022-08-16T10:37:05;6.50;;;5.60;;
14766;SDS011;7475;53.558;9.970;2022-08-16T10:39:30;7.25;;;4.93;;
14766;SDS011;7475;53.558;9.970;2022-08-16T10:41:56;7.53;;;5.20;;
14766;SDS011;7475;53.558;9.970;2022-08-16T10:44:21;8.17;;;5.30;;
14766;SDS011;7475;53.558;9.970;2022-08-16T10:46:46;5.70;;;5.10;;
14766;SDS011;7475;53.558;9.970;2022-08-16T10:49:13;5.53;;;5.00;;
14766;SDS011;7475;53.558;9.970;2022-08-16T10:51:38;7.43;;;4.78;;
14766;SDS011;7475;53.558;9.970;2022-08-16T10:54:04;5.35;;;4.85;;
14766;SDS011;7475;53.558;9.970;2022-08-16T10:56:30;6.43;;;4.97;;
14766;SDS011;7475;53.558;9.970;2022-08-16T10:58:56;5.28;;;4.75;;
14766;SDS011;7475;53.558;9.970;2022-08-16T11:01:23;8.02;;;5.03;;
14766;SDS011;7475;53.558;9.970;2022-08-16T11:03:49;6.95;;;4.45;;
14766;SDS011;7475;53.558;9.970;2022-08-16T11:06:15;4.93;;;4.45;;
14766;SDS011;7475;53.558;9.970;2022-08-16T11:08:40;4.70;;;4.15;;
14766;SDS011;7475;53.558;9.970;2022-08-16T11:11:05;6.83;;;4.73;;
14766;SDS011;7475;53.558;9.970;2022-08-16T11:13:31;5.88;;;4.68;;
14766;SDS011;7475;53.558;9.970;2022-08-16T11:15:56;7.50;;;5.15;;
14766;SDS011;7475;53.558;9.970;2022-08-16T11:18:23;6.28;;;5.75;;
14766;SDS011;7475;53.558;9.970;2022-08-16T11:20:49;5.90;;;4.63;;
14766;SDS011;7475;53.558;9.970;2022-08-16T11:23:14;5.20;;;4.80;;
14766;SDS011;7475;53.558;9.970;2022-08-16T11:25:39;7.00;;;4.60;;
14766;SDS011;7475;53.558;9.970;2022-08-16T11:28:06;8.20;;;4.72;;
14766;SDS011;7475;53.558;9.970;2022-08-16T11:30:31;6.78;;;4.68;;
14766;SDS011;7475;53.558;9.970;2022-08-16T11:32:57;6.50;;;4.70;;
14766;SDS011;7475;53.558;9.970;2022-08-16T11:35:26;8.38;;;4.82;;
14766;SDS011;7475;53.558;9.970;2022-08-16T11:37:54;6.22;;;4.75;;
14766;SDS011;7475;53.558;9.970;2022-08-16T11:40:21;5.53;;;4.72;;
14766;SDS011;7475;53.558;9.970;2022-08-16T11:42:47;5.47;;;4.97;;
14766;SDS011;7475;53.558;9.970;2022-08-16T11:45:12;8.52;;;5.00;;
14766;SDS011;7475;53.558;9.970;2022-08-16T11:47:38;7.78;;;4.88;;
14766;SDS011;7475;53.558;9.970;2022-08-16T11:50:05;5.88;;;4.80;;
14766;SDS011;7475;53.558;9.970;2022-08-16T11:52:34;6.30;;;4.75;;
14766;SDS011;7475;53.558;9.970;2022-08-16T11:54:59;6.80;;;4.93;;
14766;SDS011;7475;53.558;9.970;2022-08-16T11:57:25;9.65;;;6.28;;
14766;SDS011;7475;53.558;9.970;2022-08-16T11:59:50;7.45;;;6.20;;
14766;SDS011;7475;53.558;9.970;2022-08-16T12:02:15;6.57;;;6.03;;
14766;SDS011;7475;53.558;9.970;2022-08-16T12:04:40;11.57;;;6.50;;
14766;SDS011;7475;53.558;9.970;2022-08-16T12:07:06;8.48;;;6.63;;
14766;SDS011;7475;53.558;9.970;2022-08-16T12:09:32;7.43;;;6.60;;
14766;SDS011;7475;53.558;9.970;2022-08-16T12:11:58;9.02;;;6.10;;
14766;SDS011;7475;53.558;9.970;2022-08-16T12:14:23;8.02;;;5.80;;
14766;SDS011;7475;53.558;9.970;2022-08-16T12:16:49;6.57;;;5.38;;
14766;SDS011;7475;53.558;9.970;2022-08-16T12:19:15;6.07;;;4.90;;
14766;SDS011;7475;53.558;9.970;2022-08-16T12:21:41;9.95;;;4.78;;
14766;SDS011;7475;53.558;9.970;2022-08-16T12:24:06;5.72;;;4.40;;
14766;SDS011;7475;53.558;9.970;2022-08-16T12:26:32;5.38;;;4.72;;
14766;SDS011;7475;53.558;9.970;2022-08-16T12:28:58;5.20;;;4.70;;
14766;SDS011;7475;53.558;9.970;2022-08-16T12:31:26;5.47;;;4.97;;
14766;SDS011;7475;53.558;9.970;2022-08-16T12:33:51;6.65;;;5.35;;
14766;SDS011;7475;53.558;9.970;2022-08-16T12:36:17;7.30;;;5.20;;
14766;SDS011;7475;53.558;9.970;2022-08-16T12:38:42;7.73;;;5.53;;
14766;SDS011;7475;53.558;9.970;2022-08-16T12:41:08;6.78;;;5.63;;
14766;SDS011;7475;53.558;9.970;2022-08-16T12:43:33;6.43;;;5.47;;
14766;SDS011;7475;53.558;9.970;2022-08-16T12:45:59;6.22;;;5.63;;
14766;SDS011;7475;53.558;9.970;2022-08-16T12:48:26;6.78;;;5.57;;
14766;SDS011;7475;53.558;9.970;2022-08-16T12:51:11;8.10;;;5.78;;
14766;SDS011;7475;53.558;9.970;2022-08-16T12:53:36;11.32;;;6.15;;
14766;SDS011;7475;53.558;9.970;2022-08-16T12:56:02;9.85;;;5.72;;
14766;SDS011;7475;53.558;9.970;2022-08-16T12:58:28;8.82;;;5.82;;
14766;SDS011;7475;53.558;9.970;2022-08-16T13:00:54;6.75;;;5.95;;
14766;SDS011;7475;53.558;9.970;2022-08-16T13:03:19;8.70;;;5.68;;
14766;SDS011;7475;53.558;9.970;2022-08-16T13:05:45;7.20;;;5.80;;
14766;SDS011;7475;53.558;9.970;2022-08-16T13:08:13;8.13;;;6.03;;
14766;SDS011;7475;53.558;9.970;2022-08-16T13:10:42;6.47;;;5.88;;
14766;SDS011;7475;53.558;9.970;2022-08-16T13:13:12;7.32;;;6.00;;
14766;SDS011;7475;53.558;9.970;2022-08-16T13:15:41;7.25;;;6.30;;
14766;SDS011;7475;53.558;9.970;2022-08-16T13:18:06;6.63;;;5.03;;
14766;SDS011;7475;53.558;9.970;2022-08-16T13:20:32;6.70;;;5.27;;
14766;SDS011;7475;53.558;9.970;2022-08-16T13:23:04;7.07;;;5.47;;
14766;SDS011;7475;53.558;9.970;2022-08-16T13:25:31;9.05;;;5.50;;
14766;SDS011;7475;53.558;9.970;2022-08-16T13:27:57;6.75;;;6.05;;
14766;SDS011;7475;53.558;9.970;2022-08-16T13:30:22;7.07;;;5.25;;
14766;SDS011;7475;53.558;9.970;2022-08-16T13:32:49;4.50;;;4.10;;
14766;SDS011;7475;53.558;9.970;2022-08-16T13:35:15;4.90;;;4.40;;
14766;SDS011;7475;53.558;9.970;2022-08-16T13:37:40;4.70;;;4.30;;
14766;SDS011;7475;53.558;9.970;2022-08-16T13:40:05;7.30;;;4.70;;
14766;SDS011;7475;53.558;9.970;2022-08-16T13:42:31;6.43;;;4.70;;
14766;SDS011;7475;53.558;9.970;2022-08-16T13:44:56;5.90;;;5.07;;
14766;SDS011;7475;53.558;9.970;2022-08-16T13:47:22;8.05;;;5.28;;
14766;SDS011;7475;53.558;9.970;2022-08-16T13:49:47;7.60;;;5.53;;
14766;SDS011;7475;53.558;9.970;2022-08-16T13:52:12;7.53;;;4.65;;
14766;SDS011;7475;53.558;9.970;2022-08-16T13:54:38;5.32;;;4.20;;
14766;SDS011;7475;53.558;9.970;2022-08-16T13:57:03;7.57;;;6.88;;
14766;SDS011;7475;53.558;9.970;2022-08-16T13:59:29;6.15;;;4.40;;
14766;SDS011;7475;53.558;9.970;2022-08-16T14:01:55;5.43;;;4.05;;
14766;SDS011;7475;53.558;9.970;2022-08-16T14:04:21;5.20;;;4.00;;
14766;SDS011;7475;53.558;9.970;2022-08-16T14:06:47;6.20;;;4.00;;
14766;SDS011;7475;53.558;9.970;2022-08-16T14:09:12;4.93;;;4.20;;
14766;SDS011;7475;53.558;9.970;2022-08-16T14:11:37;6.32;;;3.95;;
14766;SDS011;7475;53.558;9.970;2022-08-16T14:14:03;4.40;;;4.00;;
14766;SDS011;7475;53.558;9.970;2022-08-16T14:16:28;5.38;;;4.05;;
14766;SDS011;7475;53.558;9.970;2022-08-16T14:18:53;4.23;;;3.80;;
14766;SDS011;7475;53.558;9.970;2022-08-16T14:21:19;11.63;;;4.43;;
14766;SDS011;7475;53.558;9.970;2022-08-16T14:23:45;5.60;;;4.25;;
14766;SDS011;7475;53.558;9.970;2022-08-16T14:26:11;4.47;;;4.07;;
14766;SDS011;7475;53.558;9.970;2022-08-16T14:28:36;6.97;;;4.32;;
14766;SDS011;7475;53.558;9.970;2022-08-16T14:31:01;4.83;;;4.30;;
14766;SDS011;7475;53.558;9.970;2022-08-16T14:33:26;4.97;;;4.23;;
14766;SDS011;7475;53.558;9.970;2022-08-16T14:35:52;5.25;;;4.57;;
14766;SDS011;7475;53.558;9.970;2022-08-16T14:38:17;8.05;;;4.28;;
14766;SDS011;7475;53.558;9.970;2022-08-16T14:40:44;4.78;;;3.88;;
14766;SDS011;7475;53.558;9.970;2022-08-16T14:43:09;6.60;;;4.03;;